createdAt,value
2023-05-04T00:00:47.564Z,5.90
2023-05-04T00:03:34.867Z,5.75
2023-05-04T00:06:22.310Z,6.32
2023-05-04T00:09:11.353Z,6.35
2023-05-04T00:11:58.546Z,6.50
2023-05-04T00:14:45.781Z,6.70
2023-05-04T00:17:33.212Z,6.30
2023-05-04T00:20:20.559Z,6.20
2023-05-04T00:23:08.338Z,6.70
2023-05-04T00:25:55.853Z,6.43
2023-05-04T00:28:43.052Z,6.97
2023-05-04T00:31:30.275Z,6.60
2023-05-04T00:34:17.502Z,6.75
2023-05-04T00:37:05.000Z,6.97
2023-05-04T00:39:52.230Z,7.45
2023-05-04T00:42:39.443Z,7.10
2023-05-04T00:45:26.820Z,7.78
2023-05-04T00:48:14.325Z,7.72
2023-05-04T00:51:02.211Z,7.90
2023-05-04T00:53:50.019Z,8.68
2023-05-04T00:56:43.497Z,8.52
2023-05-04T00:59:30.730Z,8.10
2023-05-04T01:02:18.080Z,8.35
2023-05-04T01:05:06.651Z,7.78
2023-05-04T01:08:05.178Z,7.75
2023-05-04T01:11:09.346Z,7.10
2023-05-04T01:13:57.101Z,6.82
2023-05-04T01:16:44.421Z,6.93
2023-05-04T01:19:32.210Z,6.28
2023-05-04T01:22:19.811Z,7.55
2023-05-04T01:25:08.260Z,6.85
2023-05-04T01:28:04.428Z,7.38
2023-05-04T01:31:00.817Z,7.90
2023-05-04T01:33:51.020Z,7.60
2023-05-04T01:36:40.091Z,7.18
2023-05-04T01:39:27.302Z,8.00
2023-05-04T01:42:14.583Z,7.80
2023-05-04T01:45:02.147Z,7.95
2023-05-04T01:47:50.227Z,8.15
2023-05-04T01:50:37.470Z,8.02
2023-05-04T01:53:24.660Z,7.43
2023-05-04T01:56:11.956Z,7.63
2023-05-04T01:58:59.276Z,8.52
2023-05-04T02:01:46.586Z,8.05
2023-05-04T02:04:34.293Z,8.15
2023-05-04T02:07:22.072Z,9.02
2023-05-04T02:10:09.822Z,8.90
2023-05-04T02:12:58.337Z,8.45
2023-05-04T02:15:45.694Z,8.57
2023-05-04T02:18:32.956Z,8.75
2023-05-04T02:21:20.176Z,8.68
2023-05-04T02:24:07.724Z,8.70
2023-05-04T02:26:55.020Z,9.38
2023-05-04T02:29:42.326Z,8.93
2023-05-04T02:32:29.589Z,8.95
2023-05-04T02:35:16.865Z,8.77
2023-05-04T02:38:04.067Z,9.02
2023-05-04T02:40:51.306Z,8.80
2023-05-04T02:43:38.502Z,9.43
2023-05-04T02:46:27.038Z,9.52
2023-05-04T02:49:14.395Z,9.50
2023-05-04T02:52:01.694Z,9.93
2023-05-04T02:54:50.129Z,9.85
2023-05-04T02:57:39.048Z,11.02
2023-05-04T03:00:26.493Z,11.15
2023-05-04T03:03:13.805Z,10.80
2023-05-04T03:06:01.357Z,10.45
2023-05-04T03:08:48.685Z,11.52
2023-05-04T03:11:36.054Z,10.88
2023-05-04T03:14:23.305Z,11.52
2023-05-04T03:17:10.494Z,11.27
2023-05-04T03:19:57.717Z,11.52
2023-05-04T03:22:44.950Z,12.10
2023-05-04T03:25:32.408Z,11.82
2023-05-04T03:28:19.608Z,10.85
2023-05-04T03:31:06.885Z,11.75
2023-05-04T03:33:54.133Z,10.80
2023-05-04T03:36:41.500Z,10.82
2023-05-04T03:39:28.738Z,10.48
2023-05-04T03:42:16.271Z,11.63
2023-05-04T03:45:04.318Z,11.15
2023-05-04T03:47:51.800Z,11.35
2023-05-04T03:50:39.066Z,12.18
2023-05-04T03:53:26.444Z,10.30
2023-05-04T03:56:13.634Z,11.40
2023-05-04T03:59:01.666Z,12.27
2023-05-04T04:01:48.882Z,11.57
2023-05-04T04:04:36.176Z,11.15
2023-05-04T04:07:23.734Z,11.13
2023-05-04T04:10:11.388Z,11.43
2023-05-04T04:12:58.647Z,11.23
2023-05-04T04:15:46.901Z,12.13
2023-05-04T04:18:34.189Z,11.00
2023-05-04T04:21:21.549Z,12.05
2023-05-04T04:24:08.847Z,11.73
2023-05-04T04:26:56.317Z,11.85
2023-05-04T04:29:44.086Z,11.90
2023-05-04T04:32:32.440Z,11.50
2023-05-04T04:35:19.742Z,12.50
2023-05-04T04:38:07.337Z,11.18
2023-05-04T04:40:54.539Z,12.77
2023-05-04T04:43:41.773Z,12.85
2023-05-04T04:46:29.028Z,13.63
2023-05-04T04:49:18.095Z,12.63
2023-05-04T04:52:06.153Z,12.75
2023-05-04T04:54:53.410Z,12.25
2023-05-04T04:57:40.661Z,12.82
2023-05-04T05:00:27.915Z,11.75
2023-05-04T05:03:15.251Z,12.68
2023-05-04T05:06:02.879Z,13.75
2023-05-04T05:08:50.029Z,14.05
2023-05-04T05:11:37.237Z,13.40
2023-05-04T05:14:24.484Z,13.63
2023-05-04T05:17:12.496Z,13.60
2023-05-04T05:19:59.719Z,13.75
2023-05-04T05:22:47.008Z,13.70
2023-05-04T05:25:39.179Z,13.77
2023-05-04T05:28:26.572Z,13.82
2023-05-04T05:31:14.088Z,13.77
2023-05-04T05:34:01.709Z,13.52
2023-05-04T05:36:49.318Z,14.65
2023-05-04T05:39:37.415Z,13.90
2023-05-04T05:42:24.755Z,13.90
2023-05-04T05:45:12.003Z,13.75
2023-05-04T05:47:59.201Z,14.50
2023-05-04T05:50:46.760Z,13.45
2023-05-04T05:53:33.956Z,13.65
2023-05-04T05:56:22.586Z,13.80
2023-05-04T05:59:09.796Z,13.98
2023-05-04T06:01:57.008Z,13.90
2023-05-04T06:04:47.455Z,13.85
2023-05-04T06:07:34.765Z,14.13
2023-05-04T06:10:22.170Z,12.88
2023-05-04T06:13:17.757Z,13.27
2023-05-04T06:16:05.320Z,12.95
2023-05-04T06:18:52.574Z,12.93
2023-05-04T06:21:39.794Z,13.27
2023-05-04T06:24:27.372Z,13.00
2023-05-04T06:27:14.633Z,14.13
2023-05-04T06:30:02.041Z,12.90
2023-05-04T06:32:49.295Z,12.80
2023-05-04T06:35:36.645Z,12.40
2023-05-04T06:38:23.877Z,13.20
2023-05-04T06:41:11.331Z,12.73
2023-05-04T06:44:00.224Z,12.73
2023-05-04T06:46:47.489Z,12.35
2023-05-04T06:49:35.611Z,11.90
2023-05-04T06:52:22.892Z,12.90
2023-05-04T06:55:10.192Z,11.98
2023-05-04T06:57:57.824Z,11.65
2023-05-04T07:00:45.052Z,11.52
2023-05-04T07:03:32.796Z,11.40
2023-05-04T07:06:21.327Z,12.23
2023-05-04T07:09:08.695Z,11.80
2023-05-04T07:11:55.931Z,11.90
2023-05-04T07:14:43.182Z,11.93
2023-05-04T07:17:32.550Z,12.20
2023-05-04T07:20:24.294Z,13.00
2023-05-04T07:23:12.602Z,12.45
2023-05-04T07:26:00.175Z,12.65
2023-05-04T07:28:47.557Z,12.15
2023-05-04T07:31:35.278Z,12.43
2023-05-04T07:34:30.186Z,13.25
2023-05-04T07:37:25.372Z,12.45
2023-05-04T07:40:14.933Z,14.25
2023-05-04T07:43:02.142Z,13.55
2023-05-04T07:45:49.614Z,14.23
2023-05-04T07:48:36.923Z,14.43
2023-05-04T07:51:24.205Z,14.43
2023-05-04T07:54:11.506Z,14.45
2023-05-04T07:56:58.694Z,13.45
2023-05-04T07:59:45.931Z,13.65
2023-05-04T08:02:33.292Z,13.27
2023-05-04T08:05:20.639Z,13.32
2023-05-04T08:08:09.430Z,14.07
2023-05-04T08:11:07.985Z,13.82
2023-05-04T08:14:03.988Z,13.23
2023-05-04T08:16:51.216Z,14.00
2023-05-04T08:19:38.405Z,14.18
2023-05-04T08:22:25.887Z,13.65
2023-05-04T08:25:13.342Z,13.68
2023-05-04T08:28:00.725Z,13.70
2023-05-04T08:30:47.939Z,13.45
2023-05-04T08:33:35.172Z,13.13
2023-05-04T08:36:22.414Z,13.02
2023-05-04T08:39:10.127Z,14.02
2023-05-04T08:41:57.504Z,13.98
2023-05-04T08:44:44.768Z,13.70
2023-05-04T08:47:32.075Z,12.88
2023-05-04T08:50:19.555Z,14.23
2023-05-04T08:53:12.079Z,13.02
2023-05-04T08:56:04.687Z,12.50
2023-05-04T08:58:52.942Z,13.75
2023-05-04T09:01:42.237Z,13.48
2023-05-04T09:04:31.400Z,13.05
2023-05-04T09:07:20.696Z,12.52
2023-05-04T09:10:09.016Z,13.90
2023-05-04T09:12:56.437Z,13.73
2023-05-04T09:15:58.211Z,13.15
2023-05-04T09:18:46.144Z,14.25
2023-05-04T09:21:33.514Z,15.13
2023-05-04T09:24:30.880Z,13.98
2023-05-04T09:27:18.467Z,14.25
2023-05-04T09:30:07.163Z,13.90
2023-05-04T09:32:54.487Z,13.52
2023-05-04T09:35:44.683Z,13.07
2023-05-04T09:38:32.806Z,13.82
2023-05-04T09:41:32.024Z,14.00
2023-05-04T09:44:24.506Z,12.40
2023-05-04T09:47:11.930Z,13.02
2023-05-04T09:49:59.669Z,12.20
2023-05-04T09:52:47.764Z,12.00
2023-05-04T09:55:35.070Z,12.25
2023-05-04T09:58:24.021Z,12.45
2023-05-04T10:14:35.853Z,12.25
2023-05-04T10:17:41.981Z,11.82
2023-05-04T10:21:01.269Z,11.57
2023-05-04T10:24:15.999Z,11.10
2023-05-04T10:27:12.265Z,10.93
2023-05-04T10:30:01.681Z,10.27
2023-05-04T10:32:59.106Z,11.40
2023-05-04T10:35:55.949Z,11.23
2023-05-04T10:38:43.258Z,10.75
2023-05-04T10:41:30.557Z,10.80
2023-05-04T10:44:17.820Z,11.38
2023-05-04T10:47:08.095Z,10.68
2023-05-04T10:50:11.372Z,10.27
2023-05-04T10:53:00.031Z,10.43
2023-05-04T10:55:49.004Z,9.88
2023-05-04T10:58:36.369Z,10.02
2023-05-04T11:01:24.250Z,10.10
2023-05-04T11:04:22.683Z,9.88
2023-05-04T11:07:10.033Z,9.75
2023-05-04T11:09:57.508Z,8.80
2023-05-04T11:12:44.803Z,9.52
2023-05-04T11:15:33.109Z,9.25
2023-05-04T11:18:34.579Z,9.30
2023-05-04T11:21:26.371Z,9.60
2023-05-04T11:24:13.914Z,9.18
2023-05-04T11:27:01.434Z,9.02
2023-05-04T11:30:04.706Z,8.90
2023-05-04T11:32:51.989Z,9.25
2023-05-04T11:35:40.123Z,9.02
2023-05-04T11:38:27.682Z,8.43
2023-05-04T11:41:15.196Z,8.82
2023-05-04T11:44:03.682Z,8.52
2023-05-04T11:46:51.983Z,8.27
2023-05-04T11:49:39.574Z,8.30
2023-05-04T11:52:27.769Z,8.02
2023-05-04T11:55:32.258Z,8.73
2023-05-04T11:58:26.116Z,9.02
2023-05-04T12:01:13.813Z,8.43
2023-05-04T12:04:01.389Z,8.18
2023-05-04T12:06:49.790Z,8.55
2023-05-04T12:09:48.286Z,8.73
2023-05-04T12:12:36.705Z,9.13
2023-05-04T12:15:37.532Z,7.68
2023-05-04T12:18:29.856Z,8.65
2023-05-04T12:21:23.937Z,8.60
2023-05-04T12:24:11.173Z,8.60
2023-05-04T12:26:58.415Z,7.97
2023-05-04T12:29:45.643Z,8.52
2023-05-04T12:32:32.942Z,8.27
2023-05-04T12:35:20.318Z,8.48
2023-05-04T12:38:07.566Z,8.27
2023-05-04T12:40:56.321Z,7.57
2023-05-04T12:43:43.646Z,8.75
2023-05-04T12:46:31.149Z,8.70
2023-05-04T12:49:18.548Z,8.82
2023-05-04T12:52:06.194Z,9.07
2023-05-04T12:54:53.464Z,9.48
2023-05-04T12:57:45.142Z,8.60
2023-05-04T13:00:36.541Z,8.50
2023-05-04T13:03:24.313Z,8.85
2023-05-04T13:06:11.759Z,9.18
2023-05-04T13:09:01.863Z,8.35
2023-05-04T13:11:49.983Z,9.20
2023-05-04T13:14:39.953Z,9.05
2023-05-04T13:17:29.892Z,9.02
2023-05-04T13:20:17.299Z,9.23
2023-05-04T13:23:04.582Z,8.07
2023-05-04T13:25:52.481Z,9.00
2023-05-04T13:28:39.851Z,9.32
2023-05-04T13:31:27.168Z,8.43
2023-05-04T13:34:14.452Z,7.90
2023-05-04T13:37:01.669Z,8.75
2023-05-04T13:39:49.079Z,9.32
2023-05-04T13:42:37.404Z,7.80
2023-05-04T13:45:25.219Z,8.93
2023-05-04T13:48:12.803Z,8.60
2023-05-04T13:51:00.022Z,8.40
2023-05-04T13:53:47.214Z,9.35
2023-05-04T13:56:34.476Z,8.80
2023-05-04T13:59:21.684Z,8.95
2023-05-04T14:02:08.940Z,8.35
2023-05-04T14:04:56.225Z,8.98
2023-05-04T14:07:43.489Z,8.57
2023-05-04T14:10:30.703Z,8.93
2023-05-04T14:13:18.695Z,8.70
2023-05-04T14:16:06.279Z,9.13
2023-05-04T14:18:53.542Z,8.98
2023-05-04T14:21:40.757Z,9.48
2023-05-04T14:24:28.045Z,9.07
2023-05-04T14:27:15.301Z,8.90
2023-05-04T14:30:06.359Z,9.00
2023-05-04T14:32:55.670Z,9.70
2023-05-04T14:35:45.105Z,8.50
2023-05-04T14:38:35.543Z,9.07
2023-05-04T14:41:22.789Z,8.70
2023-05-04T14:44:10.174Z,8.77
2023-05-04T14:46:57.554Z,9.00
2023-05-04T14:49:47.848Z,8.85
2023-05-04T14:52:35.123Z,8.50
2023-05-04T14:55:22.513Z,8.75
2023-05-04T14:58:10.252Z,8.73
2023-05-04T15:00:57.714Z,8.73
2023-05-04T15:03:45.749Z,8.65
2023-05-04T15:06:34.199Z,9.23
2023-05-04T15:09:21.475Z,9.38
2023-05-04T15:12:08.917Z,8.60
2023-05-04T15:14:56.128Z,10.00
2023-05-04T15:17:43.484Z,8.95
2023-05-04T15:20:30.740Z,9.75
2023-05-04T15:23:18.032Z,9.50
2023-05-04T15:26:05.302Z,9.18
2023-05-04T15:28:53.985Z,9.75
2023-05-04T15:31:41.798Z,9.80
2023-05-04T15:34:29.080Z,9.43
2023-05-04T15:37:16.309Z,9.48
2023-05-04T15:40:05.049Z,9.90
2023-05-04T15:42:53.196Z,10.13
2023-05-04T15:45:40.398Z,9.50
2023-05-04T15:48:30.724Z,9.32
2023-05-04T15:51:19.054Z,9.80
2023-05-04T15:54:06.365Z,9.25
2023-05-04T15:56:53.614Z,9.88
2023-05-04T15:59:41.035Z,9.35
2023-05-04T16:02:28.576Z,9.68
2023-05-04T16:05:15.869Z,9.63
2023-05-04T16:08:03.321Z,10.13
2023-05-04T16:10:52.247Z,9.48
2023-05-04T16:13:39.494Z,10.40
2023-05-04T16:16:26.859Z,9.55
2023-05-04T16:19:14.101Z,9.70
2023-05-04T16:22:01.543Z,8.65
2023-05-04T16:24:48.816Z,10.07
2023-05-04T16:27:36.052Z,9.38
2023-05-04T16:30:26.391Z,10.02
2023-05-04T16:33:13.766Z,9.77
2023-05-04T16:36:01.100Z,9.32
2023-05-04T16:38:48.633Z,10.20
2023-05-04T16:41:36.736Z,9.77
2023-05-04T16:44:24.557Z,9.48
2023-05-04T16:47:11.861Z,9.70
2023-05-04T16:49:59.205Z,9.10
2023-05-04T16:52:46.965Z,9.63
2023-05-04T16:55:34.245Z,9.27
2023-05-04T16:58:21.491Z,8.90
2023-05-04T17:01:10.958Z,8.68
2023-05-04T17:03:58.918Z,8.95
2023-05-04T17:06:46.302Z,8.50
2023-05-04T17:09:33.541Z,8.82
2023-05-04T17:12:22.137Z,8.73
2023-05-04T17:15:11.139Z,8.85
2023-05-04T17:17:58.555Z,8.85
2023-05-04T17:20:45.794Z,8.27
2023-05-04T17:23:33.043Z,8.85
2023-05-04T17:26:20.373Z,8.82
2023-05-04T17:29:07.912Z,8.13
2023-05-04T17:31:55.171Z,8.23
2023-05-04T17:34:42.397Z,8.50
2023-05-04T17:37:29.624Z,8.35
2023-05-04T17:40:16.967Z,8.73
2023-05-04T17:43:04.197Z,8.63
2023-05-04T17:45:53.103Z,8.15
2023-05-04T17:48:42.481Z,8.18
2023-05-04T17:51:29.727Z,7.55
2023-05-04T17:54:17.375Z,8.13
2023-05-04T17:57:04.785Z,7.95
2023-05-04T17:59:52.051Z,8.05
2023-05-04T18:02:39.322Z,7.00
2023-05-04T18:05:26.608Z,7.82
2023-05-04T18:08:14.347Z,7.80
2023-05-04T18:11:01.607Z,8.43
2023-05-04T18:13:48.944Z,8.93
2023-05-04T18:16:37.916Z,8.43
2023-05-04T18:19:26.904Z,8.80
2023-05-04T18:22:14.193Z,8.88
2023-05-04T18:25:02.254Z,8.25
2023-05-04T18:27:49.468Z,9.20
2023-05-04T18:30:36.772Z,7.97
2023-05-04T18:33:24.038Z,8.18
2023-05-04T18:36:11.379Z,7.80
2023-05-04T18:39:01.018Z,8.25
2023-05-04T18:41:48.242Z,8.10
2023-05-04T18:44:35.557Z,7.95
2023-05-04T18:47:23.019Z,8.55
2023-05-04T18:50:11.016Z,8.68
2023-05-04T18:52:58.329Z,8.57
2023-05-04T18:55:45.565Z,8.70
2023-05-04T18:58:33.297Z,8.88
2023-05-04T19:01:22.127Z,9.13
2023-05-04T19:04:09.495Z,9.25
2023-05-04T19:06:58.083Z,9.20
2023-05-04T19:09:48.016Z,9.35
2023-05-04T19:12:35.282Z,9.38
2023-05-04T19:15:23.398Z,8.90
2023-05-04T19:18:10.909Z,9.95
2023-05-04T19:20:58.495Z,10.35
2023-05-04T19:23:46.280Z,9.85
2023-05-04T19:26:33.585Z,11.30
2023-05-04T19:29:20.809Z,10.68
2023-05-04T19:32:19.821Z,11.80
2023-05-04T19:35:11.785Z,10.02
2023-05-04T19:37:59.627Z,11.07
2023-05-04T19:40:47.563Z,11.35
2023-05-04T19:43:35.623Z,10.35
2023-05-04T19:46:23.426Z,12.15
2023-05-04T19:49:12.316Z,12.35
2023-05-04T19:51:59.568Z,12.80
2023-05-04T19:54:48.734Z,13.00
2023-05-04T19:57:36.584Z,12.40
2023-05-04T20:00:23.900Z,12.60
2023-05-04T20:03:11.284Z,11.80
2023-05-04T20:05:58.796Z,12.57
2023-05-04T20:08:46.105Z,11.18
2023-05-04T20:11:34.019Z,13.80
2023-05-04T20:14:21.290Z,14.05
2023-05-04T20:17:08.662Z,12.70
2023-05-04T20:19:56.131Z,12.57
2023-05-04T20:22:43.459Z,14.10
2023-05-04T20:25:30.729Z,13.80
2023-05-04T20:28:18.146Z,14.48
2023-05-04T20:31:06.043Z,13.13
2023-05-04T20:33:53.314Z,13.70
2023-05-04T20:36:40.552Z,12.35
2023-05-04T20:39:28.347Z,13.00
2023-05-04T20:42:15.793Z,12.15
2023-05-04T20:45:03.154Z,10.68
2023-05-04T20:47:51.064Z,10.68
2023-05-04T20:50:40.377Z,9.43
2023-05-04T20:53:30.745Z,9.05
2023-05-04T20:56:18.061Z,8.40
2023-05-04T20:59:05.759Z,6.47
2023-05-04T21:01:53.121Z,5.28
2023-05-04T21:04:42.020Z,4.78
2023-05-04T21:07:29.284Z,4.10
2023-05-04T21:10:16.563Z,2.72
2023-05-04T21:13:03.879Z,2.65
2023-05-04T21:15:51.841Z,2.00
2023-05-04T21:18:40.138Z,2.20
2023-05-04T21:21:28.218Z,1.90
2023-05-04T21:24:16.703Z,1.77
2023-05-04T21:27:04.690Z,1.77
2023-05-04T21:29:52.071Z,1.85
2023-05-04T21:32:39.371Z,1.73
2023-05-04T21:35:31.142Z,1.50
2023-05-04T21:38:21.066Z,1.92
2023-05-04T21:41:16.497Z,1.92
2023-05-04T21:44:03.969Z,2.10
2023-05-04T21:46:52.153Z,2.42
2023-05-04T21:49:39.397Z,2.40
2023-05-04T21:52:26.923Z,2.00
2023-05-04T21:55:15.515Z,2.00
2023-05-04T21:58:02.816Z,2.13
2023-05-04T22:00:50.082Z,1.90
2023-05-04T22:03:37.444Z,2.20
2023-05-04T22:06:24.830Z,2.30
2023-05-04T22:09:13.638Z,2.60
2023-05-04T22:12:01.209Z,3.13
2023-05-04T22:14:48.454Z,3.20
2023-05-04T22:17:35.717Z,3.10
2023-05-04T22:20:23.693Z,2.47
2023-05-04T22:23:11.356Z,2.35
2023-05-04T22:25:58.758Z,2.80
2023-05-04T22:28:45.976Z,2.17
2023-05-04T22:31:33.218Z,2.67
2023-05-04T22:34:20.682Z,2.80
2023-05-04T22:37:07.957Z,2.90
2023-05-04T22:39:55.165Z,2.53
2023-05-04T22:42:45.128Z,2.20
2023-05-04T22:45:36.574Z,2.50
2023-05-04T22:48:23.963Z,2.30
2023-05-04T22:51:11.193Z,2.00
2023-05-04T22:53:58.555Z,1.55
2023-05-04T22:56:45.816Z,1.60
2023-05-04T22:59:33.144Z,1.88
2023-05-04T23:02:20.435Z,1.65
2023-05-04T23:05:09.261Z,1.50
2023-05-04T23:07:56.531Z,1.73
2023-05-04T23:10:47.202Z,1.70
2023-05-04T23:13:34.524Z,1.80
2023-05-04T23:16:22.325Z,1.48
2023-05-04T23:19:09.719Z,2.50
2023-05-04T23:21:59.941Z,2.28
2023-05-04T23:24:47.169Z,2.22
2023-05-04T23:27:34.500Z,2.35
2023-05-04T23:30:21.697Z,2.20
2023-05-04T23:33:08.992Z,2.70
2023-05-04T23:35:56.539Z,2.08
2023-05-04T23:38:43.773Z,2.30
2023-05-04T23:41:31.103Z,2.03
2023-05-04T23:44:18.399Z,2.25
2023-05-04T23:47:05.806Z,2.05
2023-05-04T23:49:53.040Z,2.00
2023-05-04T23:52:40.270Z,2.22
2023-05-04T23:55:27.687Z,1.95
2023-05-04T23:58:14.909Z,1.77
